Time;durP1;ratioP1;P1;durP2;ratioP2;P2;SDS_P1;SDS_P2;PMS_P1;PMS_P2;Temp;Humidity;BMP_temperature;BMP_pressure;BME280_temperature;BME280_humidity;BME280_pressure;Samples;Min_cycle;Max_cycle;Signal;HPM_P1;HPM_P2
2022/11/08 00:01:30;;;;;;;2.83;2.23;;;11.80;99.90;;;;;;5023225;28;20206;-58
2022/11/08 00:03:57;;;;;;;4.17;2.97;;;11.90;99.90;;;;;;5027679;28;20205;-57
2022/11/08 00:14:35;;;;;;;3.03;2.00;;;11.80;99.90;;;;;;5024310;28;20240;-69
2022/11/08 00:17:00;;;;;;;3.70;2.57;;;11.70;99.90;;;;;;5027545;28;20236;-69
2022/11/08 00:19:26;;;;;;;5.70;2.53;;;11.60;99.90;;;;;;5024353;28;20241;-68
2022/11/08 00:21:51;;;;;;;3.50;2.13;;;11.60;99.90;;;;;;5027095;28;20203;-73
2022/11/08 00:24:17;;;;;;;7.43;2.40;;;11.50;99.90;;;;;;5027458;28;20236;-71
2022/11/08 00:26:42;;;;;;;4.90;2.43;;;11.50;99.90;;;;;;5024518;28;20202;-72
2022/11/08 00:29:08;;;;;;;5.63;2.73;;;11.40;99.90;;;;;;5026767;28;20210;-72
2022/11/08 00:31:33;;;;;;;4.20;2.10;;;11.40;99.90;;;;;;5027223;28;20205;-72
2022/11/08 00:33:59;;;;;;;4.43;2.30;;;11.30;99.90;;;;;;5026108;28;20274;-73
2022/11/08 00:36:24;;;;;;;3.87;1.97;;;11.30;99.90;;;;;;5024053;28;20210;-69
2022/11/08 00:38:50;;;;;;;4.70;2.27;;;11.30;99.90;;;;;;5024758;28;20228;-75
2022/11/08 00:41:15;;;;;;;3.03;1.97;;;11.30;99.90;;;;;;5020811;28;20968;-76
2022/11/08 00:43:41;;;;;;;4.50;2.60;;;11.30;99.90;;;;;;5022620;28;20212;-74
2022/11/08 00:46:06;;;;;;;5.27;2.40;;;11.20;99.90;;;;;;5026266;28;20187;-72
2022/11/08 00:48:32;;;;;;;6.40;2.30;;;11.20;99.90;;;;;;5026022;28;20974;-71
2022/11/08 00:51:01;;;;;;;3.53;2.60;;;11.20;99.90;;;;;;5026378;28;20738;-68
2022/11/08 00:53:27;;;;;;;5.53;2.03;;;11.20;99.90;;;;;;5025489;28;20258;-67
2022/11/08 00:56:05;;;;;;;6.57;2.60;;;11.30;99.90;;;;;;5021728;28;20230;-64
2022/11/08 00:58:30;;;;;;;6.37;2.13;;;11.20;99.90;;;;;;5026543;28;20218;-65
2022/11/08 01:00:56;;;;;;;5.40;2.40;;;11.20;99.90;;;;;;5026904;28;20739;-64
2022/11/08 01:03:22;;;;;;;6.70;2.53;;;11.20;99.90;;;;;;5024213;28;20201;-62
2022/11/08 01:05:50;;;;;;;4.47;2.23;;;11.20;99.90;;;;;;5026611;28;20206;-62
2022/11/08 01:08:17;;;;;;;5.03;1.77;;;11.20;99.90;;;;;;5026105;28;20194;-65
2022/11/08 01:10:45;;;;;;;8.73;3.30;;;11.20;99.90;;;;;;5026653;28;20205;-62
2022/11/08 01:13:11;;;;;;;2.43;1.70;;;11.10;99.90;;;;;;5027289;28;20188;-62
2022/11/08 01:15:40;;;;;;;4.90;2.20;;;11.10;99.90;;;;;;5026815;28;20508;-63
2022/11/08 01:18:07;;;;;;;5.77;2.90;;;11.10;99.90;;;;;;5028929;28;20695;-62
2022/11/08 01:20:39;;;;;;;3.40;1.90;;;11.00;99.90;;;;;;5030298;28;20220;-63
2022/11/08 01:23:05;;;;;;;4.83;2.47;;;11.00;99.90;;;;;;5026936;28;20196;-63
2022/11/08 01:25:33;;;;;;;7.00;2.40;;;10.90;99.90;;;;;;5029895;28;20195;-69
2022/11/08 01:27:59;;;;;;;3.43;2.03;;;10.90;99.90;;;;;;5030099;28;20205;-63
2022/11/08 01:30:24;;;;;;;4.60;2.10;;;10.90;99.90;;;;;;5030220;28;20200;-64
2022/11/08 01:32:50;;;;;;;3.97;2.87;;;10.90;99.90;;;;;;5028070;28;20207;-64
2022/11/08 01:35:15;;;;;;;5.97;2.20;;;10.90;99.90;;;;;;5027790;28;20267;-63
2022/11/08 01:37:41;;;;;;;2.77;2.30;;;10.90;99.90;;;;;;5027712;28;20556;-61
2022/11/08 01:40:07;;;;;;;7.43;3.00;;;10.90;99.90;;;;;;5029107;28;20253;-65
2022/11/08 01:42:32;;;;;;;6.83;3.07;;;10.90;99.90;;;;;;5024879;28;20198;-65
2022/11/08 01:45:06;;;;;;;2.93;2.13;;;10.80;99.90;;;;;;5029869;28;20211;-64
2022/11/08 01:47:32;;;;;;;7.17;2.40;;;10.80;99.90;;;;;;5027740;28;20238;-65
2022/11/08 01:50:12;;;;;;;5.80;2.40;;;10.80;99.90;;;;;;5029467;28;20830;-65
2022/11/08 01:52:49;;;;;;;4.97;2.10;;;10.90;99.90;;;;;;5029154;28;20200;-64
2022/11/08 01:55:21;;;;;;;4.03;2.27;;;10.90;99.90;;;;;;5025813;28;20233;-64
2022/11/08 01:58:04;;;;;;;4.33;2.40;;;10.90;99.90;;;;;;5029583;28;20350;-64
2022/11/08 02:00:30;;;;;;;5.53;3.33;;;11.00;99.90;;;;;;5029542;28;20561;-64
2022/11/08 02:03:00;;;;;;;5.07;2.73;;;11.00;99.90;;;;;;5027156;28;20263;-64
2022/11/08 02:05:28;;;;;;;4.70;2.23;;;11.00;99.90;;;;;;5028841;28;20200;-64
2022/11/08 02:07:59;;;;;;;3.93;2.73;;;11.10;99.90;;;;;;5025701;28;20954;-64
2022/11/08 02:10:32;;;;;;;4.30;3.07;;;11.10;99.90;;;;;;5029875;28;20254;-65
2022/11/08 02:12:58;;;;;;;6.87;2.80;;;11.10;99.90;;;;;;5038415;28;20203;-64
2022/11/08 02:15:25;;;;;;;8.17;2.97;;;11.10;99.90;;;;;;5027698;28;20208;-65
2022/11/08 02:17:52;;;;;;;3.57;2.27;;;11.10;99.90;;;;;;5029439;28;20310;-64
2022/11/08 02:20:18;;;;;;;2.70;2.30;;;11.00;99.90;;;;;;5027278;28;20706;-63
2022/11/08 02:22:54;;;;;;;5.43;3.10;;;11.00;99.90;;;;;;5028754;28;20238;-63
2022/11/08 02:25:20;;;;;;;6.07;4.00;;;11.00;99.90;;;;;;5027460;28;20212;-64
2022/11/08 02:27:45;;;;;;;5.23;2.30;;;11.00;99.90;;;;;;5032264;28;20203;-64
2022/11/08 02:30:11;;;;;;;4.33;2.67;;;11.00;99.90;;;;;;5025787;28;20209;-63
2022/11/08 02:32:40;;;;;;;5.40;2.53;;;10.90;99.90;;;;;;5028816;28;20687;-63
2022/11/08 02:35:12;;;;;;;7.10;2.23;;;11.00;99.90;;;;;;5029561;28;20261;-64
2022/11/08 02:37:38;;;;;;;8.73;2.57;;;11.00;99.90;;;;;;5028592;28;20204;-63
2022/11/08 02:40:04;;;;;;;5.47;2.33;;;10.90;99.90;;;;;;5028269;28;20263;-63
2022/11/08 02:42:29;;;;;;;6.27;2.60;;;10.90;99.90;;;;;;5028390;28;20196;-64
2022/11/08 02:44:55;;;;;;;3.97;2.63;;;10.90;99.90;;;;;;5028046;28;20579;-63
2022/11/08 02:47:20;;;;;;;4.03;2.80;;;10.90;99.90;;;;;;5028419;28;20615;-64
2022/11/08 02:49:46;;;;;;;4.50;2.40;;;10.80;99.90;;;;;;5028113;28;20271;-63
2022/11/08 02:52:11;;;;;;;5.97;2.80;;;10.80;99.90;;;;;;5027039;28;20608;-64
2022/11/08 02:54:37;;;;;;;4.80;2.57;;;10.70;99.90;;;;;;5028631;28;20578;-63
2022/11/08 02:57:02;;;;;;;8.50;3.60;;;10.70;99.90;;;;;;5028776;28;20974;-64
2022/11/08 02:59:28;;;;;;;3.43;2.37;;;10.60;99.90;;;;;;5029291;28;20262;-64
2022/11/08 03:01:53;;;;;;;3.97;2.17;;;10.60;99.90;;;;;;5026376;28;20207;-63
2022/11/08 03:04:19;;;;;;;4.13;2.00;;;10.60;99.90;;;;;;5028089;28;20199;-64
2022/11/08 03:06:44;;;;;;;7.07;3.33;;;10.60;99.90;;;;;;5027594;28;20207;-65
2022/11/08 03:09:10;;;;;;;2.67;2.30;;;10.60;99.90;;;;;;5025401;28;20223;-64
2022/11/08 03:11:36;;;;;;;3.53;2.47;;;10.60;99.90;;;;;;5027428;28;20205;-64
2022/11/08 03:14:01;;;;;;;5.50;2.63;;;10.70;99.90;;;;;;5027972;28;20204;-64
2022/11/08 03:16:27;;;;;;;7.60;2.90;;;10.70;99.90;;;;;;5025437;28;20196;-65
2022/11/08 03:18:52;;;;;;;5.37;2.43;;;10.80;99.90;;;;;;5027988;28;20251;-64
2022/11/08 03:21:18;;;;;;;6.37;2.37;;;10.80;99.90;;;;;;5028446;28;20683;-63
2022/11/08 03:23:43;;;;;;;5.07;2.50;;;10.80;99.90;;;;;;5026585;28;20203;-63
2022/11/08 03:26:09;;;;;;;4.50;2.37;;;10.90;99.90;;;;;;5028033;28;20206;-63
2022/11/08 03:28:34;;;;;;;4.43;3.07;;;10.80;99.90;;;;;;5027858;28;20211;-63
2022/11/08 03:31:00;;;;;;;5.30;2.37;;;10.90;99.90;;;;;;5027963;28;20998;-64
2022/11/08 03:33:26;;;;;;;5.43;2.60;;;10.90;99.90;;;;;;5026686;28;20229;-64
2022/11/08 03:35:52;;;;;;;2.80;2.10;;;10.90;99.90;;;;;;5028040;28;20642;-64
2022/11/08 03:38:17;;;;;;;3.70;1.83;;;10.90;99.90;;;;;;5035091;28;20590;-64
2022/11/08 03:40:44;;;;;;;5.37;3.13;;;10.90;99.90;;;;;;5030693;28;20219;-63
2022/11/08 03:43:10;;;;;;;6.80;2.83;;;10.80;99.90;;;;;;5031355;28;20198;-64
2022/11/08 03:45:35;;;;;;;4.93;2.60;;;10.80;99.90;;;;;;5031093;28;20728;-64
2022/11/08 03:48:01;;;;;;;5.23;2.23;;;10.70;99.90;;;;;;5037595;28;20216;-63
2022/11/08 03:50:26;;;;;;;5.30;2.67;;;10.60;99.90;;;;;;5037202;28;20211;-64
2022/11/08 03:52:53;;;;;;;5.33;3.37;;;10.60;99.90;;;;;;5035820;28;20726;-64
2022/11/08 03:55:21;;;;;;;5.60;2.23;;;10.50;99.90;;;;;;5037201;28;20271;-64
2022/11/08 03:57:48;;;;;;;5.00;2.93;;;10.40;99.90;;;;;;5035441;28;20204;-64
2022/11/08 04:00:16;;;;;;;9.03;2.77;;;10.40;99.90;;;;;;5037134;28;20325;-64
2022/11/08 04:02:42;;;;;;;4.53;2.93;;;10.40;99.90;;;;;;5036841;28;20218;-64
2022/11/08 04:05:10;;;;;;;7.33;2.93;;;10.40;99.90;;;;;;5037184;28;20909;-64
2022/11/08 04:07:36;;;;;;;3.83;2.43;;;10.30;99.90;;;;;;5034993;28;20195;-64
2022/11/08 04:10:06;;;;;;;2.17;1.97;;;10.30;99.90;;;;;;5036552;28;20289;-64
2022/11/08 04:15:21;;;;;;;5.17;2.90;;;10.20;99.90;;;;;;5022125;28;20208;-63
2022/11/08 04:23:20;;;;;;;8.63;2.57;;;10.20;99.90;;;;;;5034604;28;20264;-64
2022/11/08 04:25:59;;;;;;;4.67;2.50;;;10.10;99.90;;;;;;5036680;28;20590;-64
2022/11/08 04:28:27;;;;;;;6.83;2.90;;;10.10;99.90;;;;;;5035289;28;20202;-63
2022/11/08 04:30:57;;;;;;;5.43;2.63;;;10.10;99.90;;;;;;5038258;28;20590;-63
2022/11/08 04:33:23;;;;;;;7.73;2.80;;;10.10;99.90;;;;;;5032923;28;20685;-63
2022/11/08 04:35:49;;;;;;;3.00;2.50;;;10.10;99.90;;;;;;5036106;28;20286;-63
2022/11/08 04:38:15;;;;;;;6.60;3.10;;;10.10;99.90;;;;;;5036264;28;20226;-64
2022/11/08 04:40:40;;;;;;;6.23;3.20;;;10.00;99.90;;;;;;5036394;28;20235;-64
2022/11/08 04:43:06;;;;;;;6.67;3.20;;;10.00;99.90;;;;;;5034363;28;20203;-64
2022/11/08 04:45:31;;;;;;;5.27;2.70;;;10.00;99.90;;;;;;5035643;28;20199;-64
2022/11/08 04:47:57;;;;;;;4.53;2.67;;;10.00;99.90;;;;;;5035468;28;21068;-64
2022/11/08 04:50:22;;;;;;;3.90;2.77;;;10.00;99.90;;;;;;5037809;28;20974;-64
2022/11/08 04:52:52;;;;;;;5.80;2.70;;;9.90;99.90;;;;;;5040190;28;20207;-63
2022/11/08 04:55:19;;;;;;;7.20;3.37;;;9.90;99.90;;;;;;5039117;28;20231;-63
2022/11/08 04:57:44;;;;;;;5.13;2.93;;;9.90;99.90;;;;;;5040092;28;20677;-63
2022/11/08 05:00:11;;;;;;;4.73;2.50;;;9.90;99.90;;;;;;5037826;28;20218;-63
2022/11/08 05:02:36;;;;;;;5.47;2.90;;;9.90;99.90;;;;;;5029951;28;20742;-63
2022/11/08 05:05:01;;;;;;;4.57;2.93;;;9.90;99.90;;;;;;5029160;28;20191;-63
2022/11/08 05:07:31;;;;;;;6.73;3.07;;;9.80;99.90;;;;;;5029228;28;20653;-63
2022/11/08 05:09:56;;;;;;;4.17;2.60;;;9.80;99.90;;;;;;5029284;28;20683;-63
2022/11/08 05:12:22;;;;;;;8.63;3.60;;;9.80;99.90;;;;;;5029946;28;21060;-63
2022/11/08 05:14:47;;;;;;;3.63;3.07;;;9.70;99.90;;;;;;5029552;28;20842;-63
2022/11/08 05:17:13;;;;;;;5.40;3.13;;;9.70;99.90;;;;;;5029373;28;20591;-64
2022/11/08 05:25:07;;;;;;;5.63;3.10;;;9.70;99.90;;;;;;5029616;28;20220;-63
2022/11/08 05:27:33;;;;;;;7.07;3.60;;;9.70;99.90;;;;;;5029126;28;20674;-65
2022/11/08 05:29:59;;;;;;;6.37;2.73;;;9.70;99.90;;;;;;5029319;28;20211;-65
2022/11/08 05:32:24;;;;;;;3.60;2.63;;;9.70;99.90;;;;;;5027068;28;20226;-65
2022/11/08 05:34:50;;;;;;;3.17;2.60;;;9.60;99.90;;;;;;5029810;28;20679;-65
2022/11/08 05:37:15;;;;;;;3.60;2.80;;;9.60;99.90;;;;;;5029929;28;20213;-65
2022/11/08 05:39:41;;;;;;;4.30;3.00;;;9.60;99.90;;;;;;5029779;28;20220;-65
2022/11/08 05:42:06;;;;;;;5.43;2.77;;;9.60;99.90;;;;;;5029914;28;20649;-65
2022/11/08 05:44:32;;;;;;;5.27;3.60;;;9.60;99.90;;;;;;5029528;28;20241;-65
2022/11/08 05:46:57;;;;;;;4.97;3.03;;;9.60;99.90;;;;;;5028651;28;20203;-64
2022/11/08 05:49:23;;;;;;;4.97;3.20;;;9.60;99.90;;;;;;5027349;28;20628;-64
2022/11/08 05:51:48;;;;;;;5.23;3.37;;;9.50;99.90;;;;;;5029363;28;20203;-65
2022/11/08 05:54:13;;;;;;;9.23;4.00;;;9.50;99.90;;;;;;5028726;28;20206;-64
2022/11/08 05:56:39;;;;;;;5.93;3.67;;;9.50;99.90;;;;;;5032238;28;20206;-65
2022/11/08 05:59:04;;;;;;;3.80;3.27;;;9.50;99.90;;;;;;5025524;28;20218;-64
2022/11/08 06:01:30;;;;;;;6.23;4.20;;;9.50;99.90;;;;;;5027828;28;20199;-64
2022/11/08 06:03:56;;;;;;;8.23;3.87;;;9.60;99.90;;;;;;5033013;28;20203;-64
2022/11/08 06:06:21;;;;;;;6.87;4.03;;;9.60;99.90;;;;;;5026639;28;20475;-64
2022/11/08 06:08:48;;;;;;;4.93;3.80;;;9.50;99.90;;;;;;5038137;28;20819;-63
2022/11/08 06:11:18;;;;;;;6.50;4.13;;;9.50;99.90;;;;;;5038068;28;20834;-62
2022/11/08 06:13:44;;;;;;;6.53;3.47;;;9.50;99.90;;;;;;5038772;28;20315;-64
2022/11/08 06:16:12;;;;;;;7.13;3.93;;;9.50;99.90;;;;;;5038005;28;20202;-63
2022/11/08 06:18:38;;;;;;;7.47;4.00;;;9.50;99.90;;;;;;5026951;28;21284;-63
2022/11/08 06:21:06;;;;;;;9.20;3.93;;;9.50;99.90;;;;;;5028672;28;20199;-65
2022/11/08 06:23:32;;;;;;;6.43;3.90;;;9.50;99.90;;;;;;5026963;28;20680;-63
2022/11/08 06:25:57;;;;;;;6.33;3.97;;;9.50;99.90;;;;;;5029267;28;20301;-63
2022/11/08 06:28:23;;;;;;;7.57;4.17;;;9.50;99.90;;;;;;5029592;28;20192;-63
2022/11/08 06:30:49;;;;;;;9.03;4.17;;;9.50;99.90;;;;;;5028587;28;20260;-63
2022/11/08 06:33:14;;;;;;;7.63;3.40;;;9.50;99.90;;;;;;5030026;28;20192;-63
2022/11/08 06:35:40;;;;;;;8.00;4.40;;;9.50;99.90;;;;;;5028776;28;20210;-63
2022/11/08 06:38:05;;;;;;;3.77;3.43;;;9.50;99.90;;;;;;5026843;28;20264;-63
2022/11/08 06:40:32;;;;;;;6.27;4.00;;;9.50;99.90;;;;;;5028193;28;20317;-63
2022/11/08 06:42:58;;;;;;;8.37;4.03;;;9.50;99.90;;;;;;5028415;28;20633;-63
2022/11/08 06:45:24;;;;;;;7.00;4.33;;;9.50;99.90;;;;;;5028104;28;20246;-63
2022/11/08 06:47:59;;;;;;;5.20;4.23;;;9.50;99.90;;;;;;5028225;28;20203;-63
2022/11/08 06:50:26;;;;;;;5.93;3.53;;;9.50;99.90;;;;;;5024838;28;20203;-63
2022/11/08 06:52:55;;;;;;;7.80;4.60;;;9.50;99.90;;;;;;5028226;28;20203;-63
2022/11/08 06:55:21;;;;;;;5.13;4.00;;;9.50;99.90;;;;;;5028612;28;20263;-63
2022/11/08 06:57:46;;;;;;;7.87;3.87;;;9.50;99.90;;;;;;5028882;28;20219;-64
2022/11/08 07:00:14;;;;;;;10.57;3.10;;;9.50;99.90;;;;;;5025676;28;20218;-64
2022/11/08 07:02:39;;;;;;;11.83;3.93;;;9.50;99.90;;;;;;5027640;28;20199;-65
2022/11/08 07:05:05;;;;;;;7.27;4.37;;;9.50;99.90;;;;;;5027651;28;20202;-64
2022/11/08 07:07:31;;;;;;;10.57;4.00;;;9.50;99.90;;;;;;5027668;28;20199;-64
2022/11/08 07:09:56;;;;;;;4.37;3.77;;;9.50;99.90;;;;;;5026842;28;20204;-64
2022/11/08 07:12:21;;;;;;;4.20;3.20;;;9.60;99.90;;;;;;5025548;28;20643;-61
2022/11/08 07:14:47;;;;;;;5.53;3.10;;;9.60;99.90;;;;;;5028075;28;20249;-65
2022/11/08 07:17:14;;;;;;;5.03;3.60;;;9.60;99.90;;;;;;5028002;28;20208;-65
2022/11/08 07:19:39;;;;;;;8.27;4.17;;;9.60;99.90;;;;;;5027993;28;20212;-66
2022/11/08 07:22:04;;;;;;;9.10;4.43;;;9.70;99.90;;;;;;5026654;28;20193;-65
2022/11/08 07:24:30;;;;;;;7.03;3.63;;;9.70;99.90;;;;;;5028884;28;20281;-65
2022/11/08 07:26:56;;;;;;;10.03;4.27;;;9.70;99.90;;;;;;5024497;28;20207;-66
2022/11/08 07:29:21;;;;;;;5.40;4.00;;;9.80;99.90;;;;;;5026828;28;20196;-66
2022/11/08 07:31:46;;;;;;;7.13;3.93;;;9.80;99.90;;;;;;5027316;28;20682;-65
2022/11/08 07:34:12;;;;;;;7.60;3.53;;;9.90;99.90;;;;;;5027134;28;20722;-66
2022/11/08 07:36:37;;;;;;;7.03;4.13;;;9.90;99.90;;;;;;5026955;28;20209;-66
2022/11/08 07:39:03;;;;;;;7.20;3.90;;;10.00;99.90;;;;;;5024932;28;20219;-67
2022/11/08 07:41:28;;;;;;;5.30;3.57;;;10.00;99.90;;;;;;5031372;28;20203;-64
2022/11/08 07:43:54;;;;;;;7.83;3.63;;;10.10;99.90;;;;;;5023910;28;20223;-64
2022/11/08 07:46:19;;;;;;;8.00;4.17;;;10.10;99.90;;;;;;5027572;28;20207;-64
2022/11/08 07:48:45;;;;;;;5.97;4.00;;;10.20;99.90;;;;;;5027455;28;20570;-65
2022/11/08 07:51:10;;;;;;;8.00;4.10;;;10.20;99.90;;;;;;5027414;28;20283;-65
2022/11/08 07:53:36;;;;;;;6.73;4.30;;;10.30;99.90;;;;;;5024999;28;20213;-65
2022/11/08 07:56:02;;;;;;;6.53;4.10;;;10.30;99.90;;;;;;5024951;28;20234;-65
2022/11/08 07:58:27;;;;;;;4.33;3.60;;;10.40;99.90;;;;;;5026697;28;20198;-65
2022/11/08 08:01:00;;;;;;;4.67;3.20;;;10.40;99.90;;;;;;5026571;28;20244;-65
2022/11/08 08:03:26;;;;;;;6.80;3.70;;;10.50;99.90;;;;;;5026872;28;20580;-64
2022/11/08 08:05:52;;;;;;;7.93;3.90;;;10.50;99.90;;;;;;5025241;28;20208;-65
2022/11/08 08:08:18;;;;;;;4.63;3.47;;;10.60;99.90;;;;;;5027497;28;20270;-66
2022/11/08 08:10:44;;;;;;;6.10;3.50;;;10.60;99.90;;;;;;5027150;28;20684;-66
2022/11/08 08:13:09;;;;;;;8.97;3.83;;;10.70;99.90;;;;;;5026980;28;20634;-66
2022/11/08 08:15:35;;;;;;;9.27;3.77;;;10.80;99.90;;;;;;5027775;28;20214;-66
2022/11/08 08:18:02;;;;;;;9.60;3.27;;;10.80;99.90;;;;;;5025099;28;20216;-67
2022/11/08 08:20:29;;;;;;;15.63;3.93;;;10.90;99.90;;;;;;5026064;28;20214;-67
2022/11/08 08:22:54;;;;;;;8.80;3.83;;;10.90;99.90;;;;;;5025756;28;20205;-66
2022/11/08 08:25:20;;;;;;;6.53;3.87;;;11.00;99.90;;;;;;5026329;28;20211;-66
2022/11/08 08:27:54;;;;;;;5.47;3.07;;;11.00;99.90;;;;;;5026429;28;20255;-66
2022/11/08 08:30:21;;;;;;;7.23;4.70;;;11.10;99.90;;;;;;5022758;28;20284;-66
2022/11/08 08:32:47;;;;;;;8.40;4.37;;;11.20;99.90;;;;;;5029730;28;20201;-66
2022/11/08 08:35:13;;;;;;;7.00;4.43;;;11.30;99.90;;;;;;5023950;28;20581;-66
2022/11/08 08:37:38;;;;;;;6.13;3.00;;;11.30;99.90;;;;;;5027625;28;20203;-66
2022/11/08 08:40:05;;;;;;;8.10;2.87;;;11.40;99.90;;;;;;5026977;28;20218;-66
2022/11/08 08:42:34;;;;;;;4.33;3.63;;;11.40;99.90;;;;;;5024095;28;20198;-64
2022/11/08 08:45:00;;;;;;;7.47;3.53;;;11.50;99.90;;;;;;5026581;28;20226;-65
2022/11/08 08:47:26;;;;;;;4.87;2.90;;;11.60;99.90;;;;;;5025086;28;21170;-65
2022/11/08 08:49:52;;;;;;;6.10;3.17;;;11.60;99.90;;;;;;5025933;28;20212;-65
2022/11/08 08:52:17;;;;;;;5.60;2.87;;;11.70;99.90;;;;;;5026075;28;20619;-64
2022/11/08 08:54:43;;;;;;;7.00;3.00;;;11.70;99.90;;;;;;5024399;28;20236;-64
2022/11/08 08:57:09;;;;;;;33.60;6.33;;;11.80;99.90;;;;;;5026721;28;20577;-64
2022/11/08 08:59:34;;;;;;;3.47;2.53;;;11.90;99.90;;;;;;5026608;28;20779;-64
2022/11/08 09:02:00;;;;;;;7.60;3.23;;;12.00;99.90;;;;;;5026285;28;20197;-64
2022/11/08 09:04:26;;;;;;;7.80;2.50;;;12.00;99.90;;;;;;5026330;28;20215;-64
2022/11/08 09:06:52;;;;;;;4.87;2.33;;;12.00;99.90;;;;;;5026489;28;20965;-64
2022/11/08 09:09:17;;;;;;;2.53;2.33;;;12.10;99.90;;;;;;5024752;28;20189;-64
2022/11/08 09:11:43;;;;;;;7.17;3.03;;;12.10;99.90;;;;;;5025698;28;20200;-65
2022/11/08 09:14:08;;;;;;;5.03;2.60;;;12.20;99.90;;;;;;5025671;28;20247;-64
2022/11/08 09:16:34;;;;;;;4.70;2.67;;;12.20;99.90;;;;;;5025554;28;20206;-66
2022/11/08 09:18:59;;;;;;;4.57;2.57;;;12.30;99.90;;;;;;5024804;28;20224;-67
2022/11/08 09:21:25;;;;;;;5.50;2.90;;;12.40;99.90;;;;;;5024072;28;20211;-66
2022/11/08 09:23:50;;;;;;;4.17;2.00;;;12.40;99.90;;;;;;5026410;28;20240;-66
2022/11/08 09:26:16;;;;;;;3.70;2.37;;;12.40;99.90;;;;;;5024757;28;20308;-66
2022/11/08 09:28:41;;;;;;;5.50;2.47;;;12.50;99.90;;;;;;5032445;28;20200;-65
2022/11/08 09:31:09;;;;;;;5.30;2.77;;;12.60;99.90;;;;;;5025378;28;20195;-65
2022/11/08 09:33:36;;;;;;;3.63;2.47;;;12.60;99.90;;;;;;5023858;28;20209;-65
2022/11/08 09:36:02;;;;;;;4.40;2.50;;;12.70;99.90;;;;;;5026400;28;20208;-65
2022/11/08 09:38:28;;;;;;;5.40;2.87;;;12.80;99.90;;;;;;5028478;28;20201;-62
2022/11/08 09:41:14;;;;;;;6.67;2.17;;;12.90;99.90;;;;;;5031114;28;20241;-61
2022/11/08 09:43:56;;;;;;;3.23;2.00;;;13.00;99.90;;;;;;5034826;28;20208;-62
2022/11/08 09:47:04;;;;;;;2.30;2.10;;;13.20;99.90;;;;;;5026134;28;20202;-63
2022/11/08 09:49:40;;;;;;;5.10;2.03;;;13.30;99.90;;;;;;5028213;28;20226;-62
2022/11/08 09:52:08;;;;;;;6.67;3.53;;;13.50;99.90;;;;;;5028571;28;20210;-65
2022/11/08 09:54:42;;;;;;;3.67;2.90;;;13.60;99.90;;;;;;5028980;28;20678;-63
2022/11/08 09:57:25;;;;;;;4.07;1.87;;;13.70;99.90;;;;;;5027605;28;20215;-63
2022/11/08 10:00:00;;;;;;;4.00;2.73;;;13.80;99.90;;;;;;5030348;28;20226;-58
2022/11/08 10:02:26;;;;;;;3.30;2.10;;;13.90;99.90;;;;;;5027751;28;20202;-58
2022/11/08 10:05:05;;;;;;;6.33;2.40;;;14.00;99.90;;;;;;5028610;28;20740;-60
2022/11/08 10:07:54;;;;;;;3.57;2.07;;;14.10;99.90;;;;;;5027993;28;20202;-60
2022/11/08 10:10:39;;;;;;;3.27;1.80;;;14.20;99.90;;;;;;5025132;28;20550;-60
2022/11/08 10:13:17;;;;;;;2.57;1.80;;;14.30;99.90;;;;;;5026188;28;20225;-60
2022/11/08 10:16:00;;;;;;;5.23;2.97;;;14.30;99.90;;;;;;5030417;28;20457;-61
2022/11/08 10:18:51;;;;;;;3.77;2.03;;;14.40;99.90;;;;;;5024239;28;20603;-61
2022/11/08 10:21:52;;;;;;;6.83;2.70;;;14.50;99.90;;;;;;5025966;28;20290;-72
2022/11/08 10:24:26;;;;;;;3.50;1.97;;;14.60;99.90;;;;;;5026882;28;20229;-67
2022/11/08 10:26:56;;;;;;;6.80;2.03;;;14.70;99.90;;;;;;5027721;28;20202;-65
2022/11/08 10:29:27;;;;;;;2.63;1.63;;;14.80;99.90;;;;;;5026528;28;20972;-61
2022/11/08 10:32:11;;;;;;;3.13;2.20;;;15.00;99.90;;;;;;5029589;28;20235;-62
2022/11/08 10:34:56;;;;;;;4.63;2.37;;;15.20;99.90;;;;;;5026651;28;20195;-61
2022/11/08 10:37:23;;;;;;;6.33;1.90;;;15.20;99.90;;;;;;5028437;28;20202;-61
2022/11/08 10:39:55;;;;;;;5.30;2.30;;;15.40;99.90;;;;;;5025979;28;20215;-62
2022/11/08 10:42:37;;;;;;;4.77;2.37;;;15.50;99.90;;;;;;5028146;28;20191;-60
2022/11/08 10:45:03;;;;;;;4.13;2.23;;;15.60;99.90;;;;;;5025551;28;20339;-60
2022/11/08 10:47:30;;;;;;;6.87;2.60;;;15.70;99.90;;;;;;5023359;28;20280;-60
2022/11/08 10:49:56;;;;;;;4.00;2.07;;;15.70;99.90;;;;;;5028245;28;20247;-60
2022/11/08 10:52:31;;;;;;;5.83;2.17;;;15.70;99.90;;;;;;5029183;28;20229;-59
2022/11/08 10:54:58;;;;;;;4.63;2.20;;;15.70;99.90;;;;;;5032520;28;20234;-57
2022/11/08 10:57:31;;;;;;;6.03;2.03;;;15.80;99.90;;;;;;5022770;28;20202;-59
2022/11/08 11:00:14;;;;;;;4.97;2.07;;;15.90;99.90;;;;;;5019952;28;20219;-57
2022/11/08 11:02:40;;;;;;;4.93;2.07;;;15.90;99.90;;;;;;5022862;28;20203;-58
2022/11/08 11:05:14;;;;;;;3.70;1.77;;;15.90;99.90;;;;;;5026566;28;20693;-61
2022/11/08 11:07:45;;;;;;;4.73;2.30;;;15.90;99.90;;;;;;5024856;28;20195;-59
2022/11/08 11:10:27;;;;;;;2.70;1.60;;;16.00;99.90;;;;;;5029406;28;20230;-58
2022/11/08 11:13:12;;;;;;;4.73;2.47;;;16.10;99.90;;;;;;5028951;28;20293;-57
2022/11/08 11:15:49;;;;;;;4.10;1.67;;;16.30;99.90;;;;;;5027287;28;20210;-58
2022/11/08 11:18:24;;;;;;;2.00;1.63;;;16.50;99.90;;;;;;5019147;28;20203;-59
2022/11/08 11:21:08;;;;;;;6.17;1.90;;;16.70;99.90;;;;;;5024269;28;20207;-60
2022/11/08 11:23:42;;;;;;;4.03;1.80;;;16.80;99.90;;;;;;5027769;28;20231;-57
2022/11/08 11:26:27;;;;;;;3.27;2.20;;;17.00;99.90;;;;;;5024931;28;20295;-57
2022/11/08 11:29:13;;;;;;;2.67;1.47;;;17.20;99.90;;;;;;5027918;28;21151;-56
2022/11/08 11:31:40;;;;;;;4.20;1.77;;;17.40;99.90;;;;;;5027010;28;20194;-60
2022/11/08 11:34:18;;;;;;;3.43;1.93;;;17.60;99.90;;;;;;5027082;28;20195;-60
2022/11/08 11:36:46;;;;;;;1.83;1.57;;;17.80;99.90;;;;;;5024100;28;20191;-63
2022/11/08 11:39:30;;;;;;;5.00;1.80;;;18.00;99.90;;;;;;5029007;28;20227;-63
2022/11/08 11:42:08;;;;;;;5.70;2.17;;;18.20;99.90;;;;;;5018480;28;20409;-61
2022/11/08 11:44:45;;;;;;;4.93;2.00;;;18.50;99.90;;;;;;5025893;28;20199;-61
2022/11/08 11:47:25;;;;;;;3.00;2.20;;;18.50;99.90;;;;;;5022784;28;20942;-59
2022/11/08 11:49:54;;;;;;;5.20;1.97;;;18.70;99.90;;;;;;5028775;28;20222;-58
2022/11/08 11:52:19;;;;;;;2.20;1.53;;;19.00;99.90;;;;;;5015396;28;20294;-58
2022/11/08 11:54:48;;;;;;;4.33;2.40;;;19.30;99.90;;;;;;5018136;28;20321;-58
2022/11/08 11:57:50;;;;;;;7.07;2.60;;;19.40;99.90;;;;;;5018206;28;20556;-59
2022/11/08 12:00:16;;;;;;;2.63;2.20;;;19.70;99.90;;;;;;5021566;28;20747;-59
2022/11/08 12:03:04;;;;;;;1.77;1.57;;;20.10;99.90;;;;;;5036020;28;20205;-59
2022/11/08 12:06:04;;;;;;;2.60;1.87;;;20.20;99.50;;;;;;5018755;28;20674;-59
2022/11/08 12:09:09;;;;;;;3.67;1.87;;;20.40;99.10;;;;;;5017863;28;20211;-59
2022/11/08 12:11:45;;;;;;;2.87;1.90;;;20.60;98.50;;;;;;5034551;28;20292;-59
2022/11/08 12:14:32;;;;;;;5.23;1.70;;;20.90;98.10;;;;;;5017941;28;20216;-84
2022/11/08 12:17:15;;;;;;;2.93;1.80;;;21.20;97.10;;;;;;5017529;28;20241;-60
2022/11/08 12:20:23;;;;;;;2.97;1.73;;;21.10;96.80;;;;;;5015250;28;20222;-59
2022/11/08 12:23:07;;;;;;;2.97;1.50;;;20.60;96.80;;;;;;5019413;28;20510;-76
2022/11/08 12:26:08;;;;;;;2.93;1.73;;;20.70;96.80;;;;;;5023860;28;20189;-61
2022/11/08 12:29:02;;;;;;;4.47;1.60;;;21.00;96.60;;;;;;5027201;28;20680;-60
2022/11/08 12:31:49;;;;;;;4.97;1.53;;;21.40;96.00;;;;;;5025623;28;20289;-60
2022/11/08 12:34:48;;;;;;;2.73;1.60;;;21.60;95.00;;;;;;5021762;28;20267;-61
2022/11/08 12:37:50;;;;;;;2.70;1.70;;;21.60;95.00;;;;;;5016273;28;20251;-59
2022/11/08 12:40:41;;;;;;;1.67;1.40;;;21.70;94.70;;;;;;5021055;28;20319;-58
2022/11/08 12:43:22;;;;;;;4.20;1.83;;;21.70;94.30;;;;;;5028904;28;20272;-58
2022/11/08 12:46:09;;;;;;;4.00;1.77;;;22.10;94.10;;;;;;5029520;28;20668;-60
2022/11/08 12:49:13;;;;;;;2.13;1.57;;;22.50;93.10;;;;;;5035472;28;20712;-61
2022/11/08 12:51:53;;;;;;;3.83;2.03;;;22.30;92.40;;;;;;5029488;28;20208;-60
2022/11/08 12:54:50;;;;;;;3.03;1.97;;;22.50;92.70;;;;;;5032490;28;20209;-60
2022/11/08 12:57:19;;;;;;;3.13;2.03;;;22.90;91.90;;;;;;5027466;28;20206;-60
2022/11/08 13:00:00;;;;;;;4.90;1.73;;;23.20;91.50;;;;;;5026524;28;20214;-60
2022/11/08 13:02:31;;;;;;;4.37;1.30;;;23.30;90.70;;;;;;5035054;28;20701;-60
2022/11/08 13:05:02;;;;;;;2.10;1.87;;;22.70;90.80;;;;;;5032439;28;20206;-60
2022/11/08 13:07:51;;;;;;;3.87;1.77;;;22.30;90.90;;;;;;5036213;28;20191;-60
2022/11/08 13:10:46;;;;;;;2.37;1.73;;;21.90;91.60;;;;;;5034441;28;20276;-60
2022/11/08 13:13:30;;;;;;;2.07;1.30;;;22.00;91.50;;;;;;5008585;28;20448;-60
2022/11/08 13:16:21;;;;;;;3.33;1.90;;;21.60;91.40;;;;;;5038804;28;20221;-60
2022/11/08 13:18:49;;;;;;;2.63;1.70;;;21.10;92.30;;;;;;5039962;28;20704;-60
2022/11/08 13:21:26;;;;;;;4.40;1.93;;;21.30;91.80;;;;;;5041137;28;20191;-60
2022/11/08 13:24:01;;;;;;;4.20;1.50;;;21.80;91.60;;;;;;5041919;28;20976;-60
2022/11/08 13:26:28;;;;;;;7.40;1.50;;;22.00;90.70;;;;;;5033274;28;20698;-60